createdAt,value
2023-03-20T00:00:49.194Z,13.58
2023-03-20T00:01:44.006Z,13.59
2023-03-20T00:02:23.558Z,13.46
2023-03-20T00:03:10.021Z,13.50
2023-03-20T00:03:44.232Z,13.50
2023-03-20T00:04:32.067Z,13.52
2023-03-20T00:05:25.030Z,13.46
2023-03-20T00:06:05.156Z,13.50
2023-03-20T00:06:45.003Z,13.54
2023-03-20T00:07:26.402Z,13.44
2023-03-20T00:08:07.993Z,13.50
2023-03-20T00:08:49.178Z,13.58
2023-03-20T00:09:30.017Z,13.50
2023-03-20T00:10:11.436Z,13.58
2023-03-20T00:10:53.042Z,13.50
2023-03-20T00:11:36.214Z,13.57
2023-03-20T00:12:31.000Z,13.52
2023-03-20T00:13:13.085Z,13.60
2023-03-20T00:13:53.994Z,13.53
2023-03-20T00:14:35.121Z,13.52
2023-03-20T00:15:37.254Z,13.57
2023-03-20T00:16:18.053Z,13.59
2023-03-20T00:16:54.146Z,13.50
2023-03-20T00:17:27.809Z,13.40
2023-03-20T00:18:09.001Z,13.30
2023-03-20T00:18:49.651Z,13.04
2023-03-20T00:19:34.016Z,13.08
2023-03-20T00:20:22.124Z,13.08
2023-03-20T00:21:01.978Z,12.96
2023-03-20T00:21:41.991Z,13.24
2023-03-20T00:22:16.505Z,13.21
2023-03-20T00:22:51.745Z,13.34
2023-03-20T00:23:31.985Z,13.37
2023-03-20T00:24:06.154Z,13.42
2023-03-20T00:24:39.793Z,13.33
2023-03-20T00:25:26.979Z,13.42
2023-03-20T00:26:01.211Z,13.35
2023-03-20T00:26:35.740Z,13.51
2023-03-20T00:27:21.055Z,13.42
2023-03-20T00:27:55.651Z,13.55
2023-03-20T00:28:49.898Z,13.57
2023-03-20T00:29:36.976Z,13.52
2023-03-20T00:30:28.643Z,13.52
2023-03-20T00:31:02.819Z,13.50
2023-03-20T00:31:46.012Z,13.43
2023-03-20T00:32:28.003Z,13.57
2023-03-20T00:33:01.806Z,13.62
2023-03-20T00:33:48.980Z,13.56
2023-03-20T00:34:27.099Z,13.68
2023-03-20T00:35:15.003Z,13.61
2023-03-20T00:35:49.024Z,13.56
2023-03-20T00:36:37.016Z,13.60
2023-03-20T00:37:14.327Z,13.59
2023-03-20T00:37:55.000Z,13.65
2023-03-20T00:38:29.102Z,13.64
2023-03-20T00:39:03.083Z,13.69
2023-03-20T00:39:43.965Z,13.68
2023-03-20T00:40:19.150Z,13.61
2023-03-20T00:40:52.875Z,13.64
2023-03-20T00:41:54.979Z,13.75
2023-03-20T00:42:29.092Z,13.65
2023-03-20T00:43:10.991Z,13.66
2023-03-20T00:43:52.626Z,13.53
2023-03-20T00:44:42.504Z,13.60
2023-03-20T00:45:26.122Z,13.62
2023-03-20T00:46:05.991Z,13.59
2023-03-20T00:46:47.126Z,13.54
2023-03-20T00:47:30.949Z,13.64
2023-03-20T00:48:19.037Z,13.56
2023-03-20T00:48:52.855Z,13.62
2023-03-20T00:49:46.974Z,13.61
2023-03-20T00:50:27.602Z,13.43
2023-03-20T00:51:14.973Z,13.34
2023-03-20T00:51:49.000Z,13.32
2023-03-20T00:52:37.956Z,13.46
2023-03-20T00:53:12.432Z,13.45
2023-03-20T00:53:52.992Z,13.54
2023-03-20T00:54:27.026Z,13.48
2023-03-20T00:55:00.851Z,13.55
2023-03-20T00:55:40.955Z,13.60
2023-03-20T00:56:40.074Z,13.54
2023-03-20T00:57:20.664Z,13.29
2023-03-20T00:58:06.967Z,13.17
2023-03-20T00:58:41.043Z,13.23
2023-03-20T00:59:25.975Z,13.16
2023-03-20T01:00:24.065Z,13.19
2023-03-20T01:01:04.977Z,13.34
2023-03-20T01:01:45.116Z,13.33
2023-03-20T01:03:00.959Z,13.18
2023-03-20T01:03:41.150Z,13.15
2023-03-20T01:04:23.940Z,13.20
2023-03-20T01:05:04.944Z,13.31
2023-03-20T01:05:39.070Z,13.23
2023-03-20T01:06:13.688Z,12.98
2023-03-20T01:06:54.975Z,12.94
2023-03-20T01:07:29.056Z,12.99
2023-03-20T01:08:03.109Z,13.03
2023-03-20T01:08:44.012Z,13.02
2023-03-20T01:09:18.095Z,13.10
2023-03-20T01:09:58.959Z,13.06
2023-03-20T01:10:40.041Z,13.16
2023-03-20T01:11:19.956Z,12.99
2023-03-20T01:12:01.405Z,13.00
2023-03-20T01:12:41.941Z,12.89
2023-03-20T01:13:43.010Z,12.94
2023-03-20T01:14:17.876Z,12.78
2023-03-20T01:15:02.971Z,12.83
2023-03-20T01:15:41.760Z,12.79
2023-03-20T01:16:25.520Z,12.56
2023-03-20T01:17:06.939Z,12.70
2023-03-20T01:17:41.677Z,12.65
2023-03-20T01:18:17.539Z,12.62
2023-03-20T01:18:59.916Z,12.54
2023-03-20T01:19:34.049Z,12.54
2023-03-20T01:20:28.954Z,12.74
2023-03-20T01:21:09.045Z,12.59
2023-03-20T01:21:49.952Z,12.54
2023-03-20T01:22:30.487Z,12.64
2023-03-20T01:23:10.932Z,12.69
2023-03-20T01:23:52.043Z,12.69
2023-03-20T01:24:31.923Z,12.73
2023-03-20T01:25:13.068Z,12.64
2023-03-20T01:25:53.995Z,12.68
2023-03-20T01:26:45.044Z,12.77
2023-03-20T01:27:26.929Z,12.77
2023-03-20T01:28:08.025Z,12.82
2023-03-20T01:28:47.936Z,12.79
2023-03-20T01:29:33.100Z,12.89
2023-03-20T01:30:27.917Z,12.88
2023-03-20T01:31:14.940Z,12.89
2023-03-20T01:31:49.924Z,12.82
2023-03-20T01:32:36.956Z,12.94
2023-03-20T01:33:20.503Z,12.88
2023-03-20T01:34:08.928Z,12.85
2023-03-20T01:34:43.431Z,12.86
2023-03-20T01:35:35.138Z,12.85
2023-03-20T01:36:12.371Z,12.95
2023-03-20T01:37:04.944Z,12.85
2023-03-20T01:37:39.017Z,13.02
2023-03-20T01:38:25.249Z,12.79
2023-03-20T01:39:06.908Z,13.03
2023-03-20T01:39:41.997Z,12.99
2023-03-20T01:40:46.087Z,13.06
2023-03-20T01:41:26.921Z,12.88
2023-03-20T01:42:01.036Z,12.96
2023-03-20T01:42:41.941Z,12.93
2023-03-20T01:43:26.024Z,13.06
2023-03-20T01:44:08.931Z,13.07
2023-03-20T01:44:50.093Z,13.03
2023-03-20T01:45:37.221Z,13.04
2023-03-20T01:46:36.877Z,13.17
2023-03-20T01:47:29.908Z,13.23
2023-03-20T01:48:22.979Z,13.32
2023-03-20T01:48:57.097Z,13.31
2023-03-20T01:50:07.767Z,13.43
2023-03-20T01:50:48.918Z,13.41
2023-03-20T01:51:37.722Z,13.55
2023-03-20T01:52:11.777Z,13.57
2023-03-20T01:52:53.904Z,13.48
2023-03-20T01:53:38.964Z,13.62
2023-03-20T01:54:17.916Z,13.63
2023-03-20T01:55:04.909Z,13.72
2023-03-20T01:55:39.826Z,13.68
2023-03-20T01:56:29.904Z,13.74
2023-03-20T01:57:21.136Z,13.78
2023-03-20T01:58:08.893Z,13.73
2023-03-20T01:58:52.918Z,13.83
2023-03-20T01:59:38.013Z,13.85
2023-03-20T02:00:22.932Z,13.84
2023-03-20T02:01:03.270Z,13.74
2023-03-20T02:01:44.918Z,13.70
2023-03-20T02:02:35.996Z,13.71
2023-03-20T02:03:16.924Z,13.81
2023-03-20T02:04:04.981Z,13.71
2023-03-20T02:04:44.638Z,13.50
2023-03-20T02:05:35.128Z,13.60
2023-03-20T02:06:10.344Z,13.47
2023-03-20T02:06:57.935Z,13.36
2023-03-20T02:07:33.588Z,13.39
2023-03-20T02:08:55.888Z,13.44
2023-03-20T02:09:35.938Z,13.34
2023-03-20T02:10:20.982Z,13.42
2023-03-20T02:11:03.012Z,13.29
2023-03-20T02:11:45.134Z,13.30
2023-03-20T02:12:26.864Z,13.36
2023-03-20T02:13:09.059Z,13.33
2023-03-20T02:13:50.888Z,13.32
2023-03-20T02:14:30.988Z,13.35
2023-03-20T02:15:13.930Z,13.45
2023-03-20T02:16:22.099Z,13.49
2023-03-20T02:17:01.938Z,13.59
2023-03-20T02:17:43.549Z,13.62
2023-03-20T02:18:23.873Z,13.62
2023-03-20T02:19:04.999Z,13.77
2023-03-20T02:20:34.942Z,13.74
2023-03-20T02:22:05.100Z,13.72
2023-03-20T02:23:13.894Z,13.73
2023-03-20T02:24:13.500Z,13.79
2023-03-20T02:25:26.863Z,13.79
2023-03-20T02:26:24.920Z,13.83
2023-03-20T02:27:36.879Z,13.85
2023-03-20T02:29:09.853Z,13.90
2023-03-20T02:30:52.950Z,13.87
2023-03-20T02:32:32.957Z,13.78
2023-03-20T02:33:20.964Z,13.71
2023-03-20T02:35:09.876Z,13.53
2023-03-20T02:36:34.948Z,13.42
2023-03-20T02:38:01.886Z,13.26
2023-03-20T02:39:12.062Z,13.28
2023-03-20T02:40:35.882Z,13.13
2023-03-20T02:41:59.953Z,13.09
2023-03-20T02:43:27.866Z,13.09
2023-03-20T02:44:16.028Z,12.85
2023-03-20T02:45:23.853Z,13.03
2023-03-20T02:46:19.007Z,13.03
2023-03-20T02:47:34.854Z,13.11
2023-03-20T02:48:49.938Z,13.13
2023-03-20T02:49:55.845Z,13.27
2023-03-20T02:51:35.844Z,13.19
2023-03-20T02:53:43.846Z,13.15
2023-03-20T02:54:59.872Z,12.96
2023-03-20T02:55:50.157Z,13.12
2023-03-20T02:56:57.827Z,13.19
2023-03-20T02:57:46.949Z,13.29
2023-03-20T02:58:34.857Z,13.26
2023-03-20T02:59:58.111Z,13.13
2023-03-20T03:00:54.892Z,13.19
2023-03-20T03:02:05.830Z,13.33
2023-03-20T03:03:12.837Z,13.32
2023-03-20T03:04:25.824Z,13.29
2023-03-20T03:05:29.853Z,13.38
2023-03-20T03:06:35.903Z,13.35
2023-03-20T03:07:10.993Z,13.35
2023-03-20T03:07:59.844Z,13.38
2023-03-20T03:08:38.931Z,13.50
2023-03-20T03:09:52.824Z,13.50
2023-03-20T03:10:41.006Z,13.53
2023-03-20T03:11:28.842Z,13.36
2023-03-20T03:12:25.873Z,13.45
2023-03-20T03:13:26.836Z,13.54
2023-03-20T03:14:21.875Z,13.55
2023-03-20T03:15:38.384Z,13.49
2023-03-20T03:16:43.817Z,13.48
2023-03-20T03:17:39.844Z,13.48
2023-03-20T03:18:38.828Z,13.33
2023-03-20T03:19:36.875Z,13.06
2023-03-20T03:20:38.843Z,13.29
2023-03-20T03:21:33.828Z,12.99
2023-03-20T03:22:30.815Z,13.15
2023-03-20T03:23:12.829Z,12.98
2023-03-20T03:23:56.354Z,13.10
2023-03-20T03:24:45.820Z,13.14
2023-03-20T03:25:29.942Z,13.07
2023-03-20T03:26:12.840Z,13.02
2023-03-20T03:26:53.655Z,12.95
2023-03-20T03:27:55.799Z,13.00
2023-03-20T03:28:51.834Z,12.84
2023-03-20T03:29:27.944Z,12.80
2023-03-20T03:30:30.799Z,12.87
2023-03-20T03:31:05.998Z,12.75
2023-03-20T03:31:53.843Z,12.88
2023-03-20T03:32:43.926Z,12.79
2023-03-20T03:33:36.843Z,12.84
2023-03-20T03:34:17.845Z,12.83
2023-03-20T03:35:13.798Z,12.85
2023-03-20T03:36:26.800Z,12.71
2023-03-20T03:38:06.821Z,12.71
2023-03-20T03:39:32.838Z,12.78
2023-03-20T03:40:32.919Z,12.70
2023-03-20T03:41:27.793Z,12.76
2023-03-20T03:42:33.960Z,12.77
2023-03-20T03:43:22.813Z,12.72
2023-03-20T03:44:39.851Z,12.83
2023-03-20T03:45:46.815Z,12.76
2023-03-20T03:47:15.802Z,12.81
2023-03-20T03:48:30.790Z,12.60
2023-03-20T03:49:33.802Z,12.74
2023-03-20T03:50:45.872Z,12.85
2023-03-20T03:51:31.901Z,12.70
2023-03-20T03:52:17.823Z,12.71
2023-03-20T03:52:59.678Z,12.63
2023-03-20T03:53:46.768Z,12.63
2023-03-20T03:54:44.898Z,12.77
2023-03-20T03:55:32.834Z,12.91
2023-03-20T03:56:18.832Z,12.92
2023-03-20T03:56:54.916Z,12.86
2023-03-20T03:57:56.806Z,12.97
2023-03-20T03:58:35.888Z,12.94
2023-03-20T03:59:34.800Z,12.90
2023-03-20T04:00:12.148Z,12.97
2023-03-20T04:00:58.788Z,13.00
2023-03-20T04:01:41.858Z,12.98
2023-03-20T04:02:36.775Z,13.08
2023-03-20T04:03:33.799Z,13.03
2023-03-20T04:04:29.855Z,12.92
2023-03-20T04:05:24.788Z,13.02
2023-03-20T04:06:19.797Z,13.08
2023-03-20T04:07:07.802Z,13.17
2023-03-20T04:07:41.873Z,13.16
2023-03-20T04:08:28.763Z,13.06
2023-03-20T04:09:02.930Z,13.18
2023-03-20T04:09:49.759Z,13.10
2023-03-20T04:10:23.899Z,13.26
2023-03-20T04:11:10.793Z,13.17
2023-03-20T04:11:44.914Z,13.18
2023-03-20T04:12:44.799Z,13.33
2023-03-20T04:13:18.899Z,13.26
2023-03-20T04:14:05.776Z,13.07
2023-03-20T04:14:39.871Z,13.18
2023-03-20T04:15:27.760Z,13.16
2023-03-20T04:16:01.909Z,13.15
2023-03-20T04:16:48.795Z,13.32
2023-03-20T04:17:22.872Z,13.30
2023-03-20T04:18:10.813Z,13.24
2023-03-20T04:18:45.446Z,13.32
2023-03-20T04:19:32.771Z,13.21
2023-03-20T04:20:06.874Z,13.28
2023-03-20T04:20:53.762Z,13.22
2023-03-20T04:21:27.898Z,13.26
2023-03-20T04:22:14.756Z,13.27
2023-03-20T04:22:48.878Z,13.22
2023-03-20T04:23:35.818Z,13.11
2023-03-20T04:24:09.875Z,13.09
2023-03-20T04:24:57.768Z,13.13
2023-03-20T04:25:33.023Z,13.06
2023-03-20T04:26:20.773Z,12.92
2023-03-20T04:26:54.899Z,12.66
2023-03-20T04:27:42.747Z,12.75
2023-03-20T04:28:16.864Z,12.86
2023-03-20T04:28:58.769Z,12.94
2023-03-20T04:29:39.425Z,12.80
2023-03-20T04:30:20.770Z,12.83
2023-03-20T04:31:02.904Z,12.74
2023-03-20T04:31:42.792Z,12.85
2023-03-20T04:32:22.936Z,12.86
2023-03-20T04:33:04.747Z,12.93
2023-03-20T04:33:44.856Z,12.82
2023-03-20T04:34:24.772Z,12.88
2023-03-20T04:35:05.097Z,12.89
2023-03-20T04:35:44.772Z,12.73
2023-03-20T04:36:24.948Z,12.75
2023-03-20T04:37:07.759Z,12.72
2023-03-20T04:37:47.835Z,12.72
2023-03-20T04:38:29.761Z,12.86
2023-03-20T04:39:09.854Z,12.67
2023-03-20T04:39:50.766Z,12.71
2023-03-20T04:40:31.566Z,12.67
2023-03-20T04:41:12.743Z,12.64
2023-03-20T04:41:52.876Z,12.66
2023-03-20T04:42:32.786Z,12.72
2023-03-20T04:43:12.857Z,12.79
2023-03-20T04:43:53.759Z,12.80
2023-03-20T04:44:33.845Z,12.76
2023-03-20T04:45:15.795Z,12.79
2023-03-20T04:45:56.197Z,12.76
2023-03-20T04:46:35.750Z,12.94
2023-03-20T04:47:15.872Z,12.94
2023-03-20T04:47:55.742Z,12.88
2023-03-20T04:48:35.953Z,12.77
2023-03-20T04:49:16.768Z,12.84
2023-03-20T04:49:56.852Z,12.85
2023-03-20T04:50:37.767Z,13.01
2023-03-20T04:51:17.895Z,12.80
2023-03-20T04:51:57.741Z,12.89
2023-03-20T04:52:37.851Z,12.84
2023-03-20T04:53:18.758Z,12.83
2023-03-20T04:53:58.860Z,12.80
2023-03-20T04:54:38.758Z,12.92
2023-03-20T04:55:18.897Z,12.88
2023-03-20T04:56:01.964Z,12.93
2023-03-20T04:56:42.836Z,12.84
2023-03-20T04:57:23.735Z,12.91
2023-03-20T04:58:03.836Z,12.72
2023-03-20T04:58:43.747Z,12.87
2023-03-20T04:59:23.863Z,12.84
2023-03-20T05:00:03.735Z,12.88
2023-03-20T05:00:43.847Z,12.85
2023-03-20T05:01:24.801Z,12.81
2023-03-20T05:02:04.847Z,12.76
2023-03-20T05:02:44.743Z,12.84
2023-03-20T05:03:24.835Z,12.90
2023-03-20T05:04:07.759Z,12.85
2023-03-20T05:04:48.855Z,12.77
2023-03-20T05:05:29.727Z,12.86
2023-03-20T05:06:09.814Z,12.88
2023-03-20T05:06:50.748Z,12.94
2023-03-20T05:07:30.925Z,13.00
2023-03-20T05:08:12.738Z,12.89
2023-03-20T05:08:52.831Z,12.98
2023-03-20T05:09:33.752Z,12.98
2023-03-20T05:10:16.032Z,13.00
2023-03-20T05:10:55.749Z,12.97
2023-03-20T05:11:35.961Z,13.14
2023-03-20T05:12:16.747Z,13.04
2023-03-20T05:12:56.807Z,13.12
2023-03-20T05:13:37.739Z,13.09
2023-03-20T05:14:17.825Z,13.10
2023-03-20T05:15:04.761Z,12.90
2023-03-20T05:15:38.636Z,13.11
2023-03-20T05:16:25.755Z,12.97
2023-03-20T05:16:59.596Z,13.01
2023-03-20T05:17:40.730Z,13.12
2023-03-20T05:18:14.820Z,13.10
2023-03-20T05:18:48.575Z,12.97
2023-03-20T05:19:29.720Z,13.07
2023-03-20T05:20:03.820Z,13.03
2023-03-20T05:20:37.481Z,13.05
2023-03-20T05:21:18.714Z,13.10
2023-03-20T05:21:52.852Z,13.11
2023-03-20T05:22:26.679Z,13.16
2023-03-20T05:23:07.823Z,13.23
2023-03-20T05:23:41.841Z,13.20
2023-03-20T05:24:15.511Z,13.36
2023-03-20T05:24:55.716Z,13.34
2023-03-20T05:25:29.814Z,13.31
2023-03-20T05:26:05.143Z,13.38
2023-03-20T05:26:45.719Z,13.34
2023-03-20T05:27:19.814Z,13.44
2023-03-20T05:27:55.028Z,13.37
2023-03-20T05:28:35.753Z,13.32
2023-03-20T05:29:09.828Z,13.39
2023-03-20T05:29:43.485Z,13.43
2023-03-20T05:30:25.706Z,13.49
2023-03-20T05:30:59.870Z,13.38
2023-03-20T05:31:33.466Z,13.36
2023-03-20T05:32:14.719Z,13.38
2023-03-20T05:32:48.812Z,13.47
2023-03-20T05:33:22.907Z,13.52
2023-03-20T05:34:03.723Z,13.43
2023-03-20T05:34:37.821Z,13.58
2023-03-20T05:35:12.437Z,13.55
2023-03-20T05:35:53.778Z,13.49
2023-03-20T05:36:27.850Z,13.50
2023-03-20T05:37:01.611Z,13.48
2023-03-20T05:37:42.690Z,13.59
2023-03-20T05:38:16.805Z,13.48
2023-03-20T05:38:51.633Z,13.44
2023-03-20T05:39:32.713Z,13.41
2023-03-20T05:40:06.993Z,13.31
2023-03-20T05:40:41.916Z,13.41
2023-03-20T05:41:22.724Z,13.35
2023-03-20T05:41:56.814Z,13.22
2023-03-20T05:42:30.703Z,13.41
2023-03-20T05:43:11.688Z,13.50
2023-03-20T05:43:45.943Z,13.31
2023-03-20T05:44:19.468Z,13.42
2023-03-20T05:45:00.784Z,13.40
2023-03-20T05:45:35.016Z,13.23
2023-03-20T05:46:09.522Z,13.15
2023-03-20T05:46:50.672Z,13.37
2023-03-20T05:47:26.180Z,13.34
2023-03-20T05:48:00.509Z,13.18
2023-03-20T05:48:40.712Z,13.27
2023-03-20T05:49:14.839Z,13.17
2023-03-20T05:49:48.493Z,13.39
2023-03-20T05:50:29.726Z,13.28
2023-03-20T05:51:03.813Z,13.31
2023-03-20T05:51:38.601Z,13.37
2023-03-20T05:52:18.703Z,13.27
2023-03-20T05:52:55.798Z,13.29
2023-03-20T05:53:29.496Z,13.18
2023-03-20T05:54:10.689Z,13.17
2023-03-20T05:54:44.855Z,13.18
2023-03-20T05:55:18.465Z,13.23
2023-03-20T05:55:59.747Z,13.24
2023-03-20T05:56:33.886Z,13.26
2023-03-20T05:57:07.530Z,13.31
2023-03-20T05:57:48.723Z,13.31
2023-03-20T05:58:22.768Z,13.13
2023-03-20T05:58:56.514Z,13.19
2023-03-20T05:59:37.675Z,13.32
2023-03-20T06:00:12.842Z,13.33
2023-03-20T06:00:46.639Z,13.19
2023-03-20T06:01:29.709Z,13.35
2023-03-20T06:02:03.829Z,13.38
2023-03-20T06:02:38.203Z,13.38
2023-03-20T06:03:18.757Z,13.44
2023-03-20T06:03:52.796Z,13.32
2023-03-20T06:04:27.731Z,13.32
2023-03-20T06:05:08.683Z,13.41
2023-03-20T06:05:42.810Z,13.40
2023-03-20T06:06:17.652Z,13.34
2023-03-20T06:06:58.728Z,13.40
2023-03-20T06:07:32.807Z,13.24
2023-03-20T06:08:07.683Z,13.46
2023-03-20T06:08:48.672Z,13.34
2023-03-20T06:09:22.845Z,13.48
2023-03-20T06:09:56.821Z,13.39
2023-03-20T06:10:36.674Z,13.38
2023-03-20T06:11:11.265Z,13.41
2023-03-20T06:11:46.501Z,13.45
2023-03-20T06:12:27.679Z,13.56
2023-03-20T06:13:01.895Z,13.55
2023-03-20T06:13:35.569Z,13.43
2023-03-20T06:14:15.698Z,13.38
2023-03-20T06:14:49.772Z,13.33
2023-03-20T06:15:36.915Z,13.45
2023-03-20T06:16:11.836Z,13.36
2023-03-20T06:17:00.699Z,13.22
2023-03-20T06:17:41.692Z,13.18
2023-03-20T06:18:35.645Z,13.07
2023-03-20T06:19:29.749Z,13.10
2023-03-20T06:20:24.674Z,13.17
2023-03-20T06:21:19.681Z,13.08
2023-03-20T06:22:13.682Z,13.01
2023-03-20T06:23:00.691Z,13.01
2023-03-20T06:23:34.754Z,13.02
2023-03-20T06:24:22.651Z,13.09
2023-03-20T06:24:57.340Z,13.01
2023-03-20T06:25:44.651Z,12.99
2023-03-20T06:26:18.778Z,12.95
2023-03-20T06:27:05.701Z,12.90
2023-03-20T06:27:39.842Z,12.90
2023-03-20T06:28:20.678Z,13.00
2023-03-20T06:29:00.876Z,12.91
2023-03-20T06:29:41.653Z,12.92
2023-03-20T06:30:22.753Z,13.09
2023-03-20T06:31:03.673Z,12.94
2023-03-20T06:31:43.774Z,13.03
2023-03-20T06:32:24.648Z,12.90
2023-03-20T06:33:04.793Z,13.05
2023-03-20T06:33:45.696Z,13.00
2023-03-20T06:34:26.536Z,13.08
2023-03-20T06:35:07.697Z,13.00
2023-03-20T06:35:48.249Z,13.07
2023-03-20T06:36:29.631Z,13.03
2023-03-20T06:37:09.772Z,12.90
2023-03-20T06:37:50.639Z,12.98
2023-03-20T06:38:30.816Z,12.89
2023-03-20T06:39:11.731Z,12.86
2023-03-20T06:39:51.765Z,12.95
2023-03-20T06:40:33.675Z,12.85
2023-03-20T06:41:24.583Z,12.99
2023-03-20T06:42:16.254Z,12.90
2023-03-20T06:42:56.841Z,12.98
2023-03-20T06:43:37.638Z,13.05
2023-03-20T06:44:24.686Z,12.93
2023-03-20T06:45:19.726Z,13.14
2023-03-20T06:46:13.712Z,12.99
2023-03-20T06:47:07.636Z,13.16
2023-03-20T06:48:01.632Z,13.29
2023-03-20T06:48:55.638Z,13.36
2023-03-20T06:49:45.586Z,13.27
2023-03-20T06:50:21.092Z,13.28
2023-03-20T06:51:07.642Z,13.36
2023-03-20T06:51:41.728Z,13.35
2023-03-20T06:52:29.628Z,13.22
2023-03-20T06:53:03.776Z,13.29
2023-03-20T06:53:50.652Z,13.33
2023-03-20T06:54:24.719Z,13.30
2023-03-20T06:55:05.661Z,13.30
2023-03-20T06:55:45.857Z,13.37
2023-03-20T06:56:26.659Z,13.48
2023-03-20T06:57:06.728Z,13.40
2023-03-20T06:57:47.620Z,13.34
2023-03-20T06:58:27.823Z,13.40
2023-03-20T06:59:08.605Z,13.54
2023-03-20T06:59:48.802Z,13.40
2023-03-20T07:00:29.722Z,13.36
2023-03-20T07:01:16.706Z,13.34
2023-03-20T07:01:57.733Z,13.43
2023-03-20T07:02:38.113Z,13.24
2023-03-20T07:03:18.638Z,13.28
2023-03-20T07:03:59.151Z,13.42
2023-03-20T07:04:40.655Z,13.37
2023-03-20T07:05:21.807Z,13.47
2023-03-20T07:06:02.676Z,13.46
2023-03-20T07:06:42.818Z,13.45
2023-03-20T07:07:23.616Z,13.45
2023-03-20T07:08:03.718Z,13.46
2023-03-20T07:08:44.607Z,13.47
2023-03-20T07:09:25.731Z,13.41
2023-03-20T07:10:05.599Z,13.51
2023-03-20T07:10:46.852Z,13.48
2023-03-20T07:11:27.615Z,13.40
2023-03-20T07:12:09.652Z,13.27
2023-03-20T07:12:50.656Z,13.39
2023-03-20T07:13:30.740Z,13.27
2023-03-20T07:14:10.615Z,13.42
2023-03-20T07:14:50.997Z,13.36
2023-03-20T07:15:31.610Z,13.39
2023-03-20T07:16:12.752Z,13.39
2023-03-20T07:16:53.707Z,13.52
2023-03-20T07:17:33.708Z,13.34
2023-03-20T07:18:14.588Z,13.37
2023-03-20T07:18:54.774Z,13.45
2023-03-20T07:19:37.911Z,13.45
2023-03-20T07:20:19.724Z,13.39
2023-03-20T07:21:00.646Z,13.40
2023-03-20T07:21:42.312Z,13.49
2023-03-20T07:22:32.625Z,13.53
2023-03-20T07:23:12.684Z,13.63
2023-03-20T07:23:53.604Z,13.76
2023-03-20T07:24:33.756Z,13.69
2023-03-20T07:25:16.613Z,13.54
2023-03-20T07:25:56.721Z,13.66
2023-03-20T07:26:37.612Z,13.70
2023-03-20T07:27:17.957Z,13.77
2023-03-20T07:27:58.610Z,13.73
2023-03-20T07:28:38.701Z,13.66
2023-03-20T07:29:20.628Z,13.68
2023-03-20T07:30:00.995Z,13.79
2023-03-20T07:30:40.594Z,13.71
2023-03-20T07:31:31.281Z,13.72
2023-03-20T07:32:12.612Z,13.78
2023-03-20T07:32:52.717Z,13.88
2023-03-20T07:33:32.627Z,13.79
2023-03-20T07:34:12.721Z,14.04
2023-03-20T07:34:53.587Z,13.92
2023-03-20T07:35:33.880Z,14.04
2023-03-20T07:36:14.573Z,13.93
2023-03-20T07:36:54.711Z,13.77
2023-03-20T07:37:34.592Z,13.95
2023-03-20T07:38:14.724Z,13.85
2023-03-20T07:38:55.602Z,13.87
2023-03-20T07:39:35.941Z,13.79
2023-03-20T07:40:17.595Z,13.88
2023-03-20T07:41:00.688Z,14.13
2023-03-20T07:41:41.663Z,14.02
2023-03-20T07:42:21.830Z,13.85
2023-03-20T07:43:01.589Z,14.00
2023-03-20T07:43:43.596Z,13.96
2023-03-20T07:44:25.622Z,14.04
2023-03-20T07:45:06.637Z,13.99
2023-03-20T07:45:46.691Z,14.22
2023-03-20T07:46:26.733Z,14.15
2023-03-20T07:47:07.587Z,14.13
2023-03-20T07:47:49.906Z,14.16
2023-03-20T07:48:30.588Z,14.19
2023-03-20T07:49:11.464Z,14.21
2023-03-20T07:49:53.601Z,13.90
2023-03-20T07:50:33.664Z,14.00
2023-03-20T07:51:14.560Z,14.06
2023-03-20T07:51:57.058Z,14.21
2023-03-20T07:52:37.589Z,14.31
2023-03-20T07:53:17.670Z,14.16
2023-03-20T07:53:58.568Z,14.35
2023-03-20T07:54:38.671Z,14.33
2023-03-20T07:55:18.823Z,14.24
2023-03-20T07:55:58.659Z,14.39
2023-03-20T07:56:39.622Z,14.51
2023-03-20T07:57:19.686Z,14.30
2023-03-20T07:57:59.575Z,14.45
2023-03-20T07:58:39.724Z,14.58
2023-03-20T07:59:20.590Z,14.54
2023-03-20T08:00:00.841Z,14.53
2023-03-20T08:00:41.640Z,14.64
2023-03-20T08:01:21.723Z,14.44
2023-03-20T08:02:02.584Z,14.35
2023-03-20T08:02:42.828Z,14.54
2023-03-20T08:03:22.626Z,14.65
2023-03-20T08:04:16.612Z,14.53
2023-03-20T08:05:10.572Z,14.52
2023-03-20T08:05:57.641Z,14.54
2023-03-20T08:06:31.693Z,14.31
2023-03-20T08:07:18.554Z,14.45
2023-03-20T08:07:52.726Z,14.40
2023-03-20T08:08:40.565Z,14.36
2023-03-20T08:09:14.662Z,14.28
2023-03-20T08:10:02.544Z,14.26
2023-03-20T08:10:36.709Z,14.35
2023-03-20T08:11:18.585Z,14.49
2023-03-20T08:11:58.648Z,14.39
2023-03-20T08:12:39.552Z,14.47
2023-03-20T08:13:19.652Z,14.53
2023-03-20T08:14:00.551Z,14.60
2023-03-20T08:14:43.680Z,14.64
2023-03-20T08:15:24.539Z,14.49
2023-03-20T08:16:04.641Z,14.60
2023-03-20T08:16:45.665Z,14.74
2023-03-20T08:17:25.747Z,14.73
2023-03-20T08:18:06.582Z,14.52
2023-03-20T08:18:46.663Z,14.78
2023-03-20T08:19:27.591Z,14.89
2023-03-20T08:20:07.668Z,14.93
2023-03-20T08:20:48.565Z,14.88
2023-03-20T08:21:28.714Z,14.85
2023-03-20T08:22:09.573Z,14.85
2023-03-20T08:22:52.385Z,14.84
2023-03-20T08:23:33.563Z,14.99
2023-03-20T08:24:14.680Z,15.09
2023-03-20T08:24:55.549Z,14.93
2023-03-20T08:25:35.940Z,15.01
2023-03-20T08:26:16.551Z,14.90
2023-03-20T08:26:56.653Z,14.88
2023-03-20T08:27:37.588Z,14.84
2023-03-20T08:28:17.728Z,14.78
2023-03-20T08:28:58.556Z,14.72
2023-03-20T08:29:38.680Z,14.68
2023-03-20T08:30:20.558Z,14.61
2023-03-20T08:31:00.755Z,14.73
2023-03-20T08:31:40.534Z,14.74
2023-03-20T08:32:21.271Z,14.72
2023-03-20T08:33:02.638Z,14.83
2023-03-20T08:33:42.629Z,14.76
2023-03-20T08:34:24.180Z,14.91
2023-03-20T08:35:04.614Z,14.75
2023-03-20T08:35:45.682Z,14.65
2023-03-20T08:36:26.677Z,14.89
2023-03-20T08:37:10.562Z,14.76
2023-03-20T08:37:50.676Z,14.78
2023-03-20T08:38:31.574Z,14.74
2023-03-20T08:39:12.634Z,14.89
2023-03-20T08:39:53.533Z,14.95
2023-03-20T08:40:33.670Z,15.03
2023-03-20T08:41:14.587Z,15.01
2023-03-20T08:41:54.900Z,14.96
2023-03-20T08:42:34.511Z,14.85
2023-03-20T08:43:15.631Z,15.03
2023-03-20T08:43:56.604Z,15.11
2023-03-20T08:44:36.670Z,14.81
2023-03-20T08:45:18.599Z,14.89
2023-03-20T08:45:59.670Z,14.98
2023-03-20T08:46:40.530Z,15.05
2023-03-20T08:47:20.717Z,14.92
2023-03-20T08:48:01.594Z,14.98
2023-03-20T08:48:41.689Z,14.91
2023-03-20T08:49:22.551Z,15.03
2023-03-20T08:50:17.532Z,14.94
2023-03-20T08:51:11.658Z,14.74
2023-03-20T08:52:05.685Z,14.82
2023-03-20T08:52:59.512Z,14.92
2023-03-20T08:53:53.521Z,14.90
2023-03-20T08:54:40.568Z,15.02
2023-03-20T08:55:16.214Z,14.94
2023-03-20T08:56:03.517Z,15.05
2023-03-20T08:56:37.700Z,14.99
2023-03-20T08:57:24.531Z,14.83
2023-03-20T08:57:58.629Z,14.72
2023-03-20T08:58:45.538Z,14.94
2023-03-20T08:59:19.711Z,14.79
2023-03-20T08:59:59.531Z,14.83
2023-03-20T09:00:39.629Z,14.81
2023-03-20T09:01:21.542Z,14.61
2023-03-20T09:02:01.650Z,14.75
2023-03-20T09:02:43.547Z,14.72
2023-03-20T09:03:26.665Z,14.74
2023-03-20T09:04:07.519Z,14.72
2023-03-20T09:04:47.626Z,14.73
2023-03-20T09:05:28.576Z,14.73
2023-03-20T09:06:12.609Z,14.89
2023-03-20T09:06:53.542Z,14.71
2023-03-20T09:07:33.610Z,14.80
2023-03-20T09:08:14.492Z,14.91
2023-03-20T09:08:54.617Z,14.84
2023-03-20T09:09:36.532Z,14.97
2023-03-20T09:10:17.634Z,15.02
2023-03-20T09:10:58.577Z,15.08
2023-03-20T09:11:40.104Z,14.95
2023-03-20T09:12:21.690Z,14.95
2023-03-20T09:13:09.558Z,14.64
2023-03-20T09:13:56.506Z,14.79
2023-03-20T09:14:38.366Z,14.79
2023-03-20T09:15:19.489Z,14.76
2023-03-20T09:16:07.561Z,14.88
2023-03-20T09:17:01.557Z,15.00
2023-03-20T09:17:55.515Z,14.94
2023-03-20T09:18:49.499Z,15.05
2023-03-20T09:19:45.520Z,15.03
2023-03-20T09:20:39.504Z,15.04
2023-03-20T09:21:26.517Z,15.18
2023-03-20T09:22:00.680Z,15.23
2023-03-20T09:22:50.514Z,15.11
2023-03-20T09:23:25.676Z,15.13
2023-03-20T09:24:13.522Z,15.21
2023-03-20T09:24:47.650Z,15.10
2023-03-20T09:25:34.802Z,15.25
2023-03-20T09:26:08.604Z,15.31
2023-03-20T09:26:48.541Z,15.30
2023-03-20T09:27:31.606Z,15.31
2023-03-20T09:28:12.534Z,15.36
2023-03-20T09:28:52.576Z,15.25
2023-03-20T09:29:34.508Z,15.39